sensor_id;sensor_type;location;lat;lon;timestamp;temperature;humidity
13850;DHT22;6995;52.618;13.488;2023-11-19T00:01:57;5.10;1.00
13850;DHT22;6995;52.618;13.488;2023-11-19T00:04:23;5.10;1.00
13850;DHT22;6995;52.618;13.488;2023-11-19T00:06:49;5.10;1.00
13850;DHT22;6995;52.618;13.488;2023-11-19T00:09:15;5.10;1.00
13850;DHT22;6995;52.618;13.488;2023-11-19T00:11:42;5.00;1.00
13850;DHT22;6995;52.618;13.488;2023-11-19T00:14:07;5.10;1.00
13850;DHT22;6995;52.618;13.488;2023-11-19T00:16:34;5.00;1.00
13850;DHT22;6995;52.618;13.488;2023-11-19T00:19:00;4.90;1.00
13850;DHT22;6995;52.618;13.488;2023-11-19T00:21:25;5.00;1.00
13850;DHT22;6995;52.618;13.488;2023-11-19T00:23:54;5.00;1.00
13850;DHT22;6995;52.618;13.488;2023-11-19T00:26:20;5.00;1.00
13850;DHT22;6995;52.618;13.488;2023-11-19T00:28:45;5.00;1.00
13850;DHT22;6995;52.618;13.488;2023-11-19T00:31:15;5.00;1.00
13850;DHT22;6995;52.618;13.488;2023-11-19T00:33:41;4.90;1.00
13850;DHT22;6995;52.618;13.488;2023-11-19T00:36:07;4.90;1.00
13850;DHT22;6995;52.618;13.488;2023-11-19T00:38:32;4.90;1.00
13850;DHT22;6995;52.618;13.488;2023-11-19T00:40:58;4.90;1.00
13850;DHT22;6995;52.618;13.488;2023-11-19T00:43:24;4.90;1.00
13850;DHT22;6995;52.618;13.488;2023-11-19T00:45:49;4.90;1.00
13850;DHT22;6995;52.618;13.488;2023-11-19T00:48:16;4.90;1.00
13850;DHT22;6995;52.618;13.488;2023-11-19T00:50:43;4.90;1.00
13850;DHT22;6995;52.618;13.488;2023-11-19T00:53:10;4.90;1.00
13850;DHT22;6995;52.618;13.488;2023-11-19T00:55:37;5.00;1.00
13850;DHT22;6995;52.618;13.488;2023-11-19T00:58:03;5.00;1.00
13850;DHT22;6995;52.618;13.488;2023-11-19T01:00:28;5.00;1.00
13850;DHT22;6995;52.618;13.488;2023-11-19T01:02:54;5.00;1.00
13850;DHT22;6995;52.618;13.488;2023-11-19T01:05:23;4.90;1.00
13850;DHT22;6995;52.618;13.488;2023-11-19T01:07:49;4.90;1.00
13850;DHT22;6995;52.618;13.488;2023-11-19T01:10:15;4.90;1.00
13850;DHT22;6995;52.618;13.488;2023-11-19T01:12:42;4.90;1.00
13850;DHT22;6995;52.618;13.488;2023-11-19T01:15:08;4.90;1.00
13850;DHT22;6995;52.618;13.488;2023-11-19T01:17:33;4.90;1.00
13850;DHT22;6995;52.618;13.488;2023-11-19T01:19:59;4.90;1.00
13850;DHT22;6995;52.618;13.488;2023-11-19T01:22:25;5.00;1.00
13850;DHT22;6995;52.618;13.488;2023-11-19T01:24:51;5.00;1.00
13850;DHT22;6995;52.618;13.488;2023-11-19T01:27:17;5.10;1.00
13850;DHT22;6995;52.618;13.488;2023-11-19T01:29:43;5.00;1.00
13850;DHT22;6995;52.618;13.488;2023-11-19T01:32:09;5.00;1.00
13850;DHT22;6995;52.618;13.488;2023-11-19T01:34:34;5.10;1.00
13850;DHT22;6995;52.618;13.488;2023-11-19T01:37:01;5.00;1.00
13850;DHT22;6995;52.618;13.488;2023-11-19T01:39:27;5.10;1.00
13850;DHT22;6995;52.618;13.488;2023-11-19T01:41:52;5.10;1.00
13850;DHT22;6995;52.618;13.488;2023-11-19T01:44:19;5.00;1.00
13850;DHT22;6995;52.618;13.488;2023-11-19T01:46:46;5.10;1.00
13850;DHT22;6995;52.618;13.488;2023-11-19T01:49:16;5.10;1.00
13850;DHT22;6995;52.618;13.488;2023-11-19T01:51:43;5.10;1.00
13850;DHT22;6995;52.618;13.488;2023-11-19T01:54:09;5.10;1.00
13850;DHT22;6995;52.618;13.488;2023-11-19T01:56:35;5.10;1.00
13850;DHT22;6995;52.618;13.488;2023-11-19T01:59:05;5.10;1.00
13850;DHT22;6995;52.618;13.488;2023-11-19T02:01:32;5.10;1.00
13850;DHT22;6995;52.618;13.488;2023-11-19T02:04:00;5.10;1.00
13850;DHT22;6995;52.618;13.488;2023-11-19T02:06:27;5.20;1.00
13850;DHT22;6995;52.618;13.488;2023-11-19T02:08:53;5.20;1.00
13850;DHT22;6995;52.618;13.488;2023-11-19T02:11:19;5.20;1.00
13850;DHT22;6995;52.618;13.488;2023-11-19T02:13:45;5.20;1.00
13850;DHT22;6995;52.618;13.488;2023-11-19T02:16:11;5.20;1.00
13850;DHT22;6995;52.618;13.488;2023-11-19T02:18:37;5.30;1.00
13850;DHT22;6995;52.618;13.488;2023-11-19T02:21:03;5.20;1.00
13850;DHT22;6995;52.618;13.488;2023-11-19T02:23:33;5.30;1.00
13850;DHT22;6995;52.618;13.488;2023-11-19T02:28:34;5.20;1.00
13850;DHT22;6995;52.618;13.488;2023-11-19T02:31:01;5.20;1.00
13850;DHT22;6995;52.618;13.488;2023-11-19T02:33:26;5.30;1.00
13850;DHT22;6995;52.618;13.488;2023-11-19T02:35:52;5.20;1.00
13850;DHT22;6995;52.618;13.488;2023-11-19T02:38:18;5.30;1.00
13850;DHT22;6995;52.618;13.488;2023-11-19T02:40:43;5.20;1.00
13850;DHT22;6995;52.618;13.488;2023-11-19T02:43:10;5.30;1.00
13850;DHT22;6995;52.618;13.488;2023-11-19T02:45:36;5.20;1.00
13850;DHT22;6995;52.618;13.488;2023-11-19T02:48:02;5.20;1.00
13850;DHT22;6995;52.618;13.488;2023-11-19T02:50:27;5.20;1.00
13850;DHT22;6995;52.618;13.488;2023-11-19T02:52:55;5.30;1.00
13850;DHT22;6995;52.618;13.488;2023-11-19T02:55:24;5.30;1.00
13850;DHT22;6995;52.618;13.488;2023-11-19T02:57:51;5.30;1.00
13850;DHT22;6995;52.618;13.488;2023-11-19T03:00:19;5.30;1.00
13850;DHT22;6995;52.618;13.488;2023-11-19T03:02:49;5.30;1.00
13850;DHT22;6995;52.618;13.488;2023-11-19T03:05:24;5.30;1.00
13850;DHT22;6995;52.618;13.488;2023-11-19T03:07:50;5.30;1.00
13850;DHT22;6995;52.618;13.488;2023-11-19T03:10:15;5.30;1.00
13850;DHT22;6995;52.618;13.488;2023-11-19T03:12:42;5.30;1.00
13850;DHT22;6995;52.618;13.488;2023-11-19T03:15:08;5.40;1.00
13850;DHT22;6995;52.618;13.488;2023-11-19T03:17:41;5.40;1.00
13850;DHT22;6995;52.618;13.488;2023-11-19T03:20:09;5.50;1.00
13850;DHT22;6995;52.618;13.488;2023-11-19T03:22:39;5.40;1.00
13850;DHT22;6995;52.618;13.488;2023-11-19T03:25:07;5.50;1.00
13850;DHT22;6995;52.618;13.488;2023-11-19T03:27:34;5.40;1.00
13850;DHT22;6995;52.618;13.488;2023-11-19T03:30:02;5.40;1.00
13850;DHT22;6995;52.618;13.488;2023-11-19T03:32:28;5.40;1.00
13850;DHT22;6995;52.618;13.488;2023-11-19T03:34:53;5.40;1.00
13850;DHT22;6995;52.618;13.488;2023-11-19T03:37:19;5.40;1.00
13850;DHT22;6995;52.618;13.488;2023-11-19T03:39:44;5.40;1.00
13850;DHT22;6995;52.618;13.488;2023-11-19T03:42:10;5.30;1.00
13850;DHT22;6995;52.618;13.488;2023-11-19T03:44:41;5.30;1.00
13850;DHT22;6995;52.618;13.488;2023-11-19T03:47:07;5.20;1.00
13850;DHT22;6995;52.618;13.488;2023-11-19T03:49:32;5.20;26.00
13850;DHT22;6995;52.618;13.488;2023-11-19T03:51:58;5.20;71.70
13850;DHT22;6995;52.618;13.488;2023-11-19T03:54:23;5.20;99.90
13850;DHT22;6995;52.618;13.488;2023-11-19T03:56:49;5.20;99.90
13850;DHT22;6995;52.618;13.488;2023-11-19T03:59:15;5.20;99.90
13850;DHT22;6995;52.618;13.488;2023-11-19T04:01:41;5.10;99.90
13850;DHT22;6995;52.618;13.488;2023-11-19T04:04:07;5.20;99.90
13850;DHT22;6995;52.618;13.488;2023-11-19T04:06:32;5.20;99.90
13850;DHT22;6995;52.618;13.488;2023-11-19T04:08:58;5.20;99.90
13850;DHT22;6995;52.618;13.488;2023-11-19T04:11:24;5.20;99.90
13850;DHT22;6995;52.618;13.488;2023-11-19T04:13:49;5.20;99.90
13850;DHT22;6995;52.618;13.488;2023-11-19T04:16:15;5.20;99.90
13850;DHT22;6995;52.618;13.488;2023-11-19T04:18:42;5.20;99.90
13850;DHT22;6995;52.618;13.488;2023-11-19T04:21:08;5.30;99.90
13850;DHT22;6995;52.618;13.488;2023-11-19T04:23:33;5.20;99.90
13850;DHT22;6995;52.618;13.488;2023-11-19T04:26:02;5.20;99.90
13850;DHT22;6995;52.618;13.488;2023-11-19T04:28:28;5.20;99.90
13850;DHT22;6995;52.618;13.488;2023-11-19T04:30:54;5.20;1.00
13850;DHT22;6995;52.618;13.488;2023-11-19T04:33:20;5.20;99.90
13850;DHT22;6995;52.618;13.488;2023-11-19T04:35:46;5.20;1.00
13850;DHT22;6995;52.618;13.488;2023-11-19T04:38:11;5.20;1.00
13850;DHT22;6995;52.618;13.488;2023-11-19T04:40:40;5.20;1.00
13850;DHT22;6995;52.618;13.488;2023-11-19T04:43:08;5.20;1.00
13850;DHT22;6995;52.618;13.488;2023-11-19T04:45:34;5.20;1.00
13850;DHT22;6995;52.618;13.488;2023-11-19T04:47:59;5.20;1.00
13850;DHT22;6995;52.618;13.488;2023-11-19T04:50:25;5.30;1.00
13850;DHT22;6995;52.618;13.488;2023-11-19T04:52:52;5.30;1.00
13850;DHT22;6995;52.618;13.488;2023-11-19T04:55:19;5.30;1.00
13850;DHT22;6995;52.618;13.488;2023-11-19T04:57:46;5.20;1.00
13850;DHT22;6995;52.618;13.488;2023-11-19T05:00:12;5.20;1.00
13850;DHT22;6995;52.618;13.488;2023-11-19T05:02:39;5.20;1.00
13850;DHT22;6995;52.618;13.488;2023-11-19T05:05:04;5.10;1.00
13850;DHT22;6995;52.618;13.488;2023-11-19T05:07:31;5.10;1.00
13850;DHT22;6995;52.618;13.488;2023-11-19T05:09:56;5.10;1.00
13850;DHT22;6995;52.618;13.488;2023-11-19T05:12:23;5.10;1.00
13850;DHT22;6995;52.618;13.488;2023-11-19T05:14:48;5.00;1.00
13850;DHT22;6995;52.618;13.488;2023-11-19T05:17:19;5.00;1.00
13850;DHT22;6995;52.618;13.488;2023-11-19T05:19:45;5.00;1.00
13850;DHT22;6995;52.618;13.488;2023-11-19T05:22:10;5.10;1.00
13850;DHT22;6995;52.618;13.488;2023-11-19T05:24:36;5.00;1.00
13850;DHT22;6995;52.618;13.488;2023-11-19T05:27:02;5.00;1.00
13850;DHT22;6995;52.618;13.488;2023-11-19T05:29:28;5.10;1.00
13850;DHT22;6995;52.618;13.488;2023-11-19T05:31:54;5.00;1.00
13850;DHT22;6995;52.618;13.488;2023-11-19T05:34:20;5.00;1.00
13850;DHT22;6995;52.618;13.488;2023-11-19T05:36:46;5.00;1.00
13850;DHT22;6995;52.618;13.488;2023-11-19T05:39:12;5.00;1.00
13850;DHT22;6995;52.618;13.488;2023-11-19T05:41:38;5.00;1.00
13850;DHT22;6995;52.618;13.488;2023-11-19T05:44:03;5.00;1.00
13850;DHT22;6995;52.618;13.488;2023-11-19T05:46:29;5.00;1.00
13850;DHT22;6995;52.618;13.488;2023-11-19T05:48:56;5.00;1.00
13850;DHT22;6995;52.618;13.488;2023-11-19T05:51:21;5.00;1.00
13850;DHT22;6995;52.618;13.488;2023-11-19T05:53:49;5.00;1.00
13850;DHT22;6995;52.618;13.488;2023-11-19T05:56:16;5.00;1.00
13850;DHT22;6995;52.618;13.488;2023-11-19T05:58:47;5.10;1.00
13850;DHT22;6995;52.618;13.488;2023-11-19T06:01:13;5.10;1.00
13850;DHT22;6995;52.618;13.488;2023-11-19T06:03:39;5.10;1.00
13850;DHT22;6995;52.618;13.488;2023-11-19T06:06:05;5.20;1.00
13850;DHT22;6995;52.618;13.488;2023-11-19T06:08:31;5.10;1.00
13850;DHT22;6995;52.618;13.488;2023-11-19T06:10:57;5.10;1.00
13850;DHT22;6995;52.618;13.488;2023-11-19T06:13:23;5.10;1.00
13850;DHT22;6995;52.618;13.488;2023-11-19T06:15:49;5.10;1.00
13850;DHT22;6995;52.618;13.488;2023-11-19T06:18:16;5.10;1.00
13850;DHT22;6995;52.618;13.488;2023-11-19T06:20:42;5.10;1.00
13850;DHT22;6995;52.618;13.488;2023-11-19T06:23:08;5.10;1.00
13850;DHT22;6995;52.618;13.488;2023-11-19T06:25:34;5.20;1.00
13850;DHT22;6995;52.618;13.488;2023-11-19T06:28:00;5.20;1.00
13850;DHT22;6995;52.618;13.488;2023-11-19T06:30:26;5.20;1.00
13850;DHT22;6995;52.618;13.488;2023-11-19T06:32:53;5.20;1.00
13850;DHT22;6995;52.618;13.488;2023-11-19T06:35:19;5.20;1.00
13850;DHT22;6995;52.618;13.488;2023-11-19T06:37:45;5.30;1.00
13850;DHT22;6995;52.618;13.488;2023-11-19T06:40:11;5.30;1.00
13850;DHT22;6995;52.618;13.488;2023-11-19T06:42:38;5.30;1.00
13850;DHT22;6995;52.618;13.488;2023-11-19T06:45:04;5.30;1.00
13850;DHT22;6995;52.618;13.488;2023-11-19T06:47:31;5.30;1.00
13850;DHT22;6995;52.618;13.488;2023-11-19T06:49:58;5.40;1.00
13850;DHT22;6995;52.618;13.488;2023-11-19T06:52:23;5.30;1.00
13850;DHT22;6995;52.618;13.488;2023-11-19T06:54:49;5.40;1.00
13850;DHT22;6995;52.618;13.488;2023-11-19T06:57:16;5.50;1.00
13850;DHT22;6995;52.618;13.488;2023-11-19T06:59:42;5.40;1.00
13850;DHT22;6995;52.618;13.488;2023-11-19T07:02:09;5.40;1.00
13850;DHT22;6995;52.618;13.488;2023-11-19T07:04:35;5.40;1.00
13850;DHT22;6995;52.618;13.488;2023-11-19T07:07:00;5.40;1.00
13850;DHT22;6995;52.618;13.488;2023-11-19T07:09:27;5.50;1.00
13850;DHT22;6995;52.618;13.488;2023-11-19T07:11:52;5.50;1.00
13850;DHT22;6995;52.618;13.488;2023-11-19T07:14:19;5.50;1.00
13850;DHT22;6995;52.618;13.488;2023-11-19T07:16:45;5.50;1.00
13850;DHT22;6995;52.618;13.488;2023-11-19T07:19:15;5.60;1.00
13850;DHT22;6995;52.618;13.488;2023-11-19T07:21:42;5.50;1.00
13850;DHT22;6995;52.618;13.488;2023-11-19T07:24:10;5.60;1.00
13850;DHT22;6995;52.618;13.488;2023-11-19T07:26:42;5.60;11.50
13850;DHT22;6995;52.618;13.488;2023-11-19T07:29:07;5.70;12.20
13850;DHT22;6995;52.618;13.488;2023-11-19T07:31:33;5.70;1.00
13850;DHT22;6995;52.618;13.488;2023-11-19T07:33:59;5.70;1.00
13850;DHT22;6995;52.618;13.488;2023-11-19T07:36:24;5.70;1.00
13850;DHT22;6995;52.618;13.488;2023-11-19T07:38:51;5.70;1.00
13850;DHT22;6995;52.618;13.488;2023-11-19T07:41:17;5.70;1.00
13850;DHT22;6995;52.618;13.488;2023-11-19T07:43:45;5.70;1.00
13850;DHT22;6995;52.618;13.488;2023-11-19T07:46:16;5.70;1.00
13850;DHT22;6995;52.618;13.488;2023-11-19T07:48:41;5.80;10.50
13850;DHT22;6995;52.618;13.488;2023-11-19T07:51:08;5.80;4.60
13850;DHT22;6995;52.618;13.488;2023-11-19T07:53:33;5.90;1.30
13850;DHT22;6995;52.618;13.488;2023-11-19T07:56:00;5.90;1.00
13850;DHT22;6995;52.618;13.488;2023-11-19T07:58:26;5.90;1.00
13850;DHT22;6995;52.618;13.488;2023-11-19T08:00:51;5.90;1.00
13850;DHT22;6995;52.618;13.488;2023-11-19T08:03:19;6.00;1.00
13850;DHT22;6995;52.618;13.488;2023-11-19T08:05:45;6.00;1.00
13850;DHT22;6995;52.618;13.488;2023-11-19T08:08:12;6.10;1.00
13850;DHT22;6995;52.618;13.488;2023-11-19T08:10:38;6.00;1.00
13850;DHT22;6995;52.618;13.488;2023-11-19T08:13:07;6.00;1.00
13850;DHT22;6995;52.618;13.488;2023-11-19T08:15:33;6.10;1.00
13850;DHT22;6995;52.618;13.488;2023-11-19T08:18:00;6.10;1.00
13850;DHT22;6995;52.618;13.488;2023-11-19T08:20:26;6.10;1.00
13850;DHT22;6995;52.618;13.488;2023-11-19T08:22:51;6.10;1.00
13850;DHT22;6995;52.618;13.488;2023-11-19T08:25:17;6.20;3.90
13850;DHT22;6995;52.618;13.488;2023-11-19T08:27:43;6.20;1.00
13850;DHT22;6995;52.618;13.488;2023-11-19T08:30:09;6.20;1.00
13850;DHT22;6995;52.618;13.488;2023-11-19T08:32:35;6.30;12.30
13850;DHT22;6995;52.618;13.488;2023-11-19T08:35:01;6.30;9.30
13850;DHT22;6995;52.618;13.488;2023-11-19T08:37:27;6.40;8.00
13850;DHT22;6995;52.618;13.488;2023-11-19T08:39:52;6.40;7.00
13850;DHT22;6995;52.618;13.488;2023-11-19T08:42:18;6.50;1.00
13850;DHT22;6995;52.618;13.488;2023-11-19T08:44:48;6.50;1.00
13850;DHT22;6995;52.618;13.488;2023-11-19T08:47:16;6.60;1.00
13850;DHT22;6995;52.618;13.488;2023-11-19T08:49:43;6.70;1.00
13850;DHT22;6995;52.618;13.488;2023-11-19T08:52:09;6.80;1.00
13850;DHT22;6995;52.618;13.488;2023-11-19T08:54:42;6.80;1.00
13850;DHT22;6995;52.618;13.488;2023-11-19T08:57:07;6.90;1.00
13850;DHT22;6995;52.618;13.488;2023-11-19T08:59:34;6.90;1.00
13850;DHT22;6995;52.618;13.488;2023-11-19T09:02:01;7.20;1.00
13850;DHT22;6995;52.618;13.488;2023-11-19T09:04:27;7.20;1.00
13850;DHT22;6995;52.618;13.488;2023-11-19T09:06:54;7.40;1.00
13850;DHT22;6995;52.618;13.488;2023-11-19T09:09:20;7.50;1.00
13850;DHT22;6995;52.618;13.488;2023-11-19T09:11:45;7.50;1.00
13850;DHT22;6995;52.618;13.488;2023-11-19T09:14:11;7.60;1.00
13850;DHT22;6995;52.618;13.488;2023-11-19T09:16:38;7.40;1.00
13850;DHT22;6995;52.618;13.488;2023-11-19T09:19:04;7.40;1.00
13850;DHT22;6995;52.618;13.488;2023-11-19T09:21:29;7.50;1.00
13850;DHT22;6995;52.618;13.488;2023-11-19T09:23:55;7.50;1.00
13850;DHT22;6995;52.618;13.488;2023-11-19T09:26:21;7.60;1.00
13850;DHT22;6995;52.618;13.488;2023-11-19T09:28:46;7.80;1.00
13850;DHT22;6995;52.618;13.488;2023-11-19T09:31:18;7.90;1.00
13850;DHT22;6995;52.618;13.488;2023-11-19T09:33:44;8.10;1.00
13850;DHT22;6995;52.618;13.488;2023-11-19T09:36:14;8.20;1.00
13850;DHT22;6995;52.618;13.488;2023-11-19T09:38:40;8.30;1.00
13850;DHT22;6995;52.618;13.488;2023-11-19T09:41:06;8.40;1.00
13850;DHT22;6995;52.618;13.488;2023-11-19T09:43:39;8.40;1.00
13850;DHT22;6995;52.618;13.488;2023-11-19T09:46:06;8.50;1.00
13850;DHT22;6995;52.618;13.488;2023-11-19T09:48:36;8.50;1.00
13850;DHT22;6995;52.618;13.488;2023-11-19T09:51:06;8.60;1.00
13850;DHT22;6995;52.618;13.488;2023-11-19T09:53:32;8.80;1.00
13850;DHT22;6995;52.618;13.488;2023-11-19T09:56:00;9.10;1.00
13850;DHT22;6995;52.618;13.488;2023-11-19T09:58:28;9.10;1.00
13850;DHT22;6995;52.618;13.488;2023-11-19T10:00:54;9.00;1.00
13850;DHT22;6995;52.618;13.488;2023-11-19T10:03:21;9.00;1.00
13850;DHT22;6995;52.618;13.488;2023-11-19T10:05:47;8.90;1.00
13850;DHT22;6995;52.618;13.488;2023-11-19T10:08:16;8.90;1.00
13850;DHT22;6995;52.618;13.488;2023-11-19T10:10:43;8.90;47.10
13850;DHT22;6995;52.618;13.488;2023-11-19T10:13:08;9.00;99.90
13850;DHT22;6995;52.618;13.488;2023-11-19T10:15:38;9.20;99.90
13850;DHT22;6995;52.618;13.488;2023-11-19T10:18:05;9.40;99.90
13850;DHT22;6995;52.618;13.488;2023-11-19T10:20:38;9.40;93.90
13850;DHT22;6995;52.618;13.488;2023-11-19T10:23:05;9.40;99.90
13850;DHT22;6995;52.618;13.488;2023-11-19T10:25:32;9.70;99.90
13850;DHT22;6995;52.618;13.488;2023-11-19T10:27:58;9.90;90.50
13850;DHT22;6995;52.618;13.488;2023-11-19T10:30:28;10.10;99.90
13850;DHT22;6995;52.618;13.488;2023-11-19T10:33:08;10.20;14.00
13850;DHT22;6995;52.618;13.488;2023-11-19T10:35:36;10.20;1.00
13850;DHT22;6995;52.618;13.488;2023-11-19T10:38:15;10.10;1.00
13850;DHT22;6995;52.618;13.488;2023-11-19T10:40:41;10.10;1.00
13850;DHT22;6995;52.618;13.488;2023-11-19T10:43:07;10.10;1.00
13850;DHT22;6995;52.618;13.488;2023-11-19T10:45:34;10.20;1.00
13850;DHT22;6995;52.618;13.488;2023-11-19T10:48:00;10.20;1.00
13850;DHT22;6995;52.618;13.488;2023-11-19T10:50:27;10.30;1.00
13850;DHT22;6995;52.618;13.488;2023-11-19T10:52:56;10.30;1.00
13850;DHT22;6995;52.618;13.488;2023-11-19T10:55:27;10.30;1.00
13850;DHT22;6995;52.618;13.488;2023-11-19T10:58:02;10.30;1.00
13850;DHT22;6995;52.618;13.488;2023-11-19T11:00:30;10.20;1.00
13850;DHT22;6995;52.618;13.488;2023-11-19T11:03:01;10.10;11.40
13850;DHT22;6995;52.618;13.488;2023-11-19T11:05:31;10.30;50.30
13850;DHT22;6995;52.618;13.488;2023-11-19T11:08:00;10.60;67.30
13850;DHT22;6995;52.618;13.488;2023-11-19T11:10:26;10.70;1.00
13850;DHT22;6995;52.618;13.488;2023-11-19T11:12:55;10.80;1.00
13850;DHT22;6995;52.618;13.488;2023-11-19T11:15:32;10.90;1.00
13850;DHT22;6995;52.618;13.488;2023-11-19T11:18:02;11.00;1.00
13850;DHT22;6995;52.618;13.488;2023-11-19T11:20:30;11.20;1.00
13850;DHT22;6995;52.618;13.488;2023-11-19T11:28:46;11.40;1.00
13850;DHT22;6995;52.618;13.488;2023-11-19T11:39:41;12.00;99.90
13850;DHT22;6995;52.618;13.488;2023-11-19T11:55:29;12.50;20.40
13850;DHT22;6995;52.618;13.488;2023-11-19T11:57:59;12.50;43.60
13850;DHT22;6995;52.618;13.488;2023-11-19T12:00:30;12.30;1.00
13850;DHT22;6995;52.618;13.488;2023-11-19T12:02:57;12.30;84.10
13850;DHT22;6995;52.618;13.488;2023-11-19T12:05:23;12.20;7.50
13850;DHT22;6995;52.618;13.488;2023-11-19T12:08:04;12.20;35.30
13850;DHT22;6995;52.618;13.488;2023-11-19T12:10:36;12.30;55.00
13850;DHT22;6995;52.618;13.488;2023-11-19T12:13:04;12.20;44.90
13850;DHT22;6995;52.618;13.488;2023-11-19T12:15:32;12.20;55.40
13850;DHT22;6995;52.618;13.488;2023-11-19T12:17:58;12.20;48.70
13850;DHT22;6995;52.618;13.488;2023-11-19T12:20:26;12.20;6.60
13850;DHT22;6995;52.618;13.488;2023-11-19T12:22:52;12.30;49.90
13850;DHT22;6995;52.618;13.488;2023-11-19T12:25:19;12.20;36.30
13850;DHT22;6995;52.618;13.488;2023-11-19T12:27:52;12.20;26.80
13850;DHT22;6995;52.618;13.488;2023-11-19T12:30:25;12.10;31.80
13850;DHT22;6995;52.618;13.488;2023-11-19T12:32:52;12.10;29.60
13850;DHT22;6995;52.618;13.488;2023-11-19T12:35:22;12.10;1.00
13850;DHT22;6995;52.618;13.488;2023-11-19T12:37:49;12.10;10.60
13850;DHT22;6995;52.618;13.488;2023-11-19T12:40:16;12.00;1.00
13850;DHT22;6995;52.618;13.488;2023-11-19T12:42:43;12.10;72.40
13850;DHT22;6995;52.618;13.488;2023-11-19T12:45:09;12.00;99.90
13850;DHT22;6995;52.618;13.488;2023-11-19T12:47:38;11.90;99.90
13850;DHT22;6995;52.618;13.488;2023-11-19T12:50:05;11.80;99.90
13850;DHT22;6995;52.618;13.488;2023-11-19T12:52:32;11.90;99.90
13850;DHT22;6995;52.618;13.488;2023-11-19T12:54:58;11.80;99.90
13850;DHT22;6995;52.618;13.488;2023-11-19T12:57:37;11.80;99.90
13850;DHT22;6995;52.618;13.488;2023-11-19T13:00:04;11.70;99.90
13850;DHT22;6995;52.618;13.488;2023-11-19T13:02:48;11.70;99.90
13850;DHT22;6995;52.618;13.488;2023-11-19T13:05:32;11.80;99.90
13850;DHT22;6995;52.618;13.488;2023-11-19T13:08:02;11.90;99.90
13850;DHT22;6995;52.618;13.488;2023-11-19T13:10:28;12.20;40.40
13850;DHT22;6995;52.618;13.488;2023-11-19T13:13:06;12.40;1.00
13850;DHT22;6995;52.618;13.488;2023-11-19T13:15:32;12.70;1.00
13850;DHT22;6995;52.618;13.488;2023-11-19T13:17:59;12.60;1.00
13850;DHT22;6995;52.618;13.488;2023-11-19T13:20:24;12.60;1.00
13850;DHT22;6995;52.618;13.488;2023-11-19T13:23:01;12.40;1.00
13850;DHT22;6995;52.618;13.488;2023-11-19T13:25:27;12.50;1.00
13850;DHT22;6995;52.618;13.488;2023-11-19T13:27:54;12.90;1.00
13850;DHT22;6995;52.618;13.488;2023-11-19T13:30:20;12.90;1.00
13850;DHT22;6995;52.618;13.488;2023-11-19T13:32:48;12.80;1.00
13850;DHT22;6995;52.618;13.488;2023-11-19T13:35:15;13.00;1.00
13850;DHT22;6995;52.618;13.488;2023-11-19T13:37:40;12.80;1.00
13850;DHT22;6995;52.618;13.488;2023-11-19T13:40:10;12.70;1.00
13850;DHT22;6995;52.618;13.488;2023-11-19T13:42:38;12.60;1.00
13850;DHT22;6995;52.618;13.488;2023-11-19T13:45:11;12.40;1.00
13850;DHT22;6995;52.618;13.488;2023-11-19T13:47:45;12.30;1.00
13850;DHT22;6995;52.618;13.488;2023-11-19T13:50:12;12.10;1.00
13850;DHT22;6995;52.618;13.488;2023-11-19T13:52:40;12.00;1.00
13850;DHT22;6995;52.618;13.488;2023-11-19T13:55:11;12.00;1.00
13850;DHT22;6995;52.618;13.488;2023-11-19T13:57:38;12.00;1.00
13850;DHT22;6995;52.618;13.488;2023-11-19T14:00:05;12.00;1.00
13850;DHT22;6995;52.618;13.488;2023-11-19T14:02:35;11.90;1.00
13850;DHT22;6995;52.618;13.488;2023-11-19T14:05:00;11.80;1.00
13850;DHT22;6995;52.618;13.488;2023-11-19T14:07:26;11.80;1.00
13850;DHT22;6995;52.618;13.488;2023-11-19T14:09:53;11.80;1.00
13850;DHT22;6995;52.618;13.488;2023-11-19T14:12:19;11.80;1.00
13850;DHT22;6995;52.618;13.488;2023-11-19T14:14:45;11.80;1.00
13850;DHT22;6995;52.618;13.488;2023-11-19T14:17:11;11.80;1.00
13850;DHT22;6995;52.618;13.488;2023-11-19T14:19:37;11.70;1.00
13850;DHT22;6995;52.618;13.488;2023-11-19T14:22:04;11.70;1.00
13850;DHT22;6995;52.618;13.488;2023-11-19T14:24:31;11.70;1.00
13850;DHT22;6995;52.618;13.488;2023-11-19T14:26:56;11.70;1.00
13850;DHT22;6995;52.618;13.488;2023-11-19T14:29:27;11.70;1.00
13850;DHT22;6995;52.618;13.488;2023-11-19T14:31:56;11.70;1.00
13850;DHT22;6995;52.618;13.488;2023-11-19T14:34:24;11.60;1.00
13850;DHT22;6995;52.618;13.488;2023-11-19T14:36:50;11.70;8.10
13850;DHT22;6995;52.618;13.488;2023-11-19T14:39:16;11.60;1.00
13850;DHT22;6995;52.618;13.488;2023-11-19T14:41:43;11.70;1.00
13850;DHT22;6995;52.618;13.488;2023-11-19T14:44:09;11.60;36.10
13850;DHT22;6995;52.618;13.488;2023-11-19T14:46:35;11.60;18.70
13850;DHT22;6995;52.618;13.488;2023-11-19T14:49:01;11.60;12.20
13850;DHT22;6995;52.618;13.488;2023-11-19T14:51:26;11.60;18.90
13850;DHT22;6995;52.618;13.488;2023-11-19T14:53:52;11.60;35.40
13850;DHT22;6995;52.618;13.488;2023-11-19T14:56:18;11.60;13.50
13850;DHT22;6995;52.618;13.488;2023-11-19T14:58:44;11.60;1.00
13850;DHT22;6995;52.618;13.488;2023-11-19T15:01:14;11.60;1.00
13850;DHT22;6995;52.618;13.488;2023-11-19T15:03:40;11.60;1.00
13850;DHT22;6995;52.618;13.488;2023-11-19T15:06:06;11.60;1.00
13850;DHT22;6995;52.618;13.488;2023-11-19T15:08:32;11.60;1.00
13850;DHT22;6995;52.618;13.488;2023-11-19T15:10:58;11.60;1.00
13850;DHT22;6995;52.618;13.488;2023-11-19T15:13:25;11.60;1.00
13850;DHT22;6995;52.618;13.488;2023-11-19T15:15:53;11.60;1.00
13850;DHT22;6995;52.618;13.488;2023-11-19T15:18:18;11.60;1.00
13850;DHT22;6995;52.618;13.488;2023-11-19T15:20:45;11.60;1.00
13850;DHT22;6995;52.618;13.488;2023-11-19T15:23:13;11.70;1.00
13850;DHT22;6995;52.618;13.488;2023-11-19T15:25:39;11.60;1.00
13850;DHT22;6995;52.618;13.488;2023-11-19T15:28:05;11.60;1.00
13850;DHT22;6995;52.618;13.488;2023-11-19T15:30:30;11.60;1.00
13850;DHT22;6995;52.618;13.488;2023-11-19T15:32:56;11.60;1.00
13850;DHT22;6995;52.618;13.488;2023-11-19T15:35:22;11.60;1.00
13850;DHT22;6995;52.618;13.488;2023-11-19T15:37:48;11.50;1.00
13850;DHT22;6995;52.618;13.488;2023-11-19T15:40:14;11.50;5.40
13850;DHT22;6995;52.618;13.488;2023-11-19T15:42:40;11.50;1.00
13850;DHT22;6995;52.618;13.488;2023-11-19T15:45:06;11.50;7.30
13850;DHT22;6995;52.618;13.488;2023-11-19T15:47:33;11.50;1.00
13850;DHT22;6995;52.618;13.488;2023-11-19T15:50:01;11.50;1.00
13850;DHT22;6995;52.618;13.488;2023-11-19T15:52:26;11.50;1.00
13850;DHT22;6995;52.618;13.488;2023-11-19T15:54:52;11.50;1.00
13850;DHT22;6995;52.618;13.488;2023-11-19T15:57:18;11.50;1.00
13850;DHT22;6995;52.618;13.488;2023-11-19T15:59:44;11.50;1.00
13850;DHT22;6995;52.618;13.488;2023-11-19T16:02:09;11.50;1.00
13850;DHT22;6995;52.618;13.488;2023-11-19T16:04:35;11.50;1.00
13850;DHT22;6995;52.618;13.488;2023-11-19T16:07:01;11.60;1.00
13850;DHT22;6995;52.618;13.488;2023-11-19T16:09:27;11.60;1.00
13850;DHT22;6995;52.618;13.488;2023-11-19T16:11:53;11.50;1.00
13850;DHT22;6995;52.618;13.488;2023-11-19T16:14:20;11.50;1.00
13850;DHT22;6995;52.618;13.488;2023-11-19T16:16:45;11.40;1.00
13850;DHT22;6995;52.618;13.488;2023-11-19T16:19:11;11.40;1.00
13850;DHT22;6995;52.618;13.488;2023-11-19T16:21:37;11.40;1.00
13850;DHT22;6995;52.618;13.488;2023-11-19T16:24:06;11.40;1.00